Domov               UVHVVR             MKGP            O straneh              
ZDRAVSTVENO VARSTVO RASTLIN
  MREŽA AGROMET. POSTAJ
 ► PROGNOSTIČNA OBVESTILA
AGROMETEOROLOŠKI PODATKI -
ARSO
OBVLADOVANJE TVEGANJ ZARADI
NEUGODNIH VREMENSKIH RAZMER
  ► NARAVNE NESREČE
  ► SUŠA/MOČA
  ► NAMAKANJE
  ► ŽLED (gozdarstvo)
KARTOGRAFSKI PRIKAZI
SPLETNE POVEZAVE
PROJEKTI IN PUBLIKACIJE

AGROMETEOROLOŠKA MREŽA: VREMENSKE POSTAJE IN FENOLOŠKA OPAZOVANJA

Pregled podatkov za lokacijo Svečina, meteorološka postaja 24393

Pregled senzorjev na lokaciji

ID Ime Zadnja
vrednost
Datum
zadnje
spremembe
Tip
senzorja
922 Omočenost lista (U) 0 U 23.7.2018 05:30 A730WET
925 Padavine (mm) 2,8 mm 23.7.2018 05:30 Generic 0.2 mm
924 Relativna vlaga 2 m (% RH) 99,93 % RH 23.7.2018 05:30 Generic 0 - 100 %
923 Temperatura 2 m (°C) 15,53 °C 23.7.2018 05:30 Generic -40 - +60 °C

Pregled podatkov zadnjih 24 ur

Zap.
št.
Datum in čas Svečina
Omočenost
lista
Padavine Relativna
vlaga
2
m
Temperatura
2
m
1 23.7.2018 06:00
2 23.7.2018 05:30
3 23.7.2018 05:00
4 23.7.2018 04:30 0 2,8 99,9 15,5
5 23.7.2018 04:00 0 0,8 99,9 15,8
6 23.7.2018 03:30 0 0,2 94,5 15,9
7 23.7.2018 03:00 0 0 88,4 16,5
8 23.7.2018 02:30 0 0 77,6 17,3
9 23.7.2018 02:00 0 0 80,1 17
10 23.7.2018 01:30 0 0 81,2 17
11 23.7.2018 01:00 0 0 84,6 16,8
12 23.7.2018 00:30 0 0 84,4 17,1
13 23.7.2018 00:00 0 0 78,8 17,8
14 22.7.2018 23:30 0 0 80,6 17,9
15 22.7.2018 23:00 0 0 78,7 18,2
16 22.7.2018 22:30 0 0 73,6 18,8
17 22.7.2018 22:00 0 0 80,7 18,2
18 22.7.2018 21:30 0 0 85,2 17,9
19 22.7.2018 21:00 0 0 82,3 18,3
20 22.7.2018 20:30 0 0 85,1 18,4
21 22.7.2018 20:00 0 0 86,3 18,5
22 22.7.2018 19:30 0 0 88,2 18,9
23 22.7.2018 19:00 0 0 86,1 19,4
24 22.7.2018 18:30 0 0 85,9 19,5
25 22.7.2018 18:00 0 0 85,5 19,5
26 22.7.2018 17:30 0 0 83,5 19,8
27 22.7.2018 17:00 0 0 83,8 19,8
28 22.7.2018 16:30 0 0 81,3 20,7
29 22.7.2018 16:00 0 0 90 18,1
30 22.7.2018 15:30 0 0,4 92,7 17,7
31 22.7.2018 15:00 0 1,2 73,4 21
32 22.7.2018 14:30 0 0 56,6 24,2
33 22.7.2018 14:00 0 0 57,6 24,9
34 22.7.2018 13:30 0 0,2 64,5 24,2
35 22.7.2018 13:00 0 0 57,2 24,2
36 22.7.2018 12:30 9 0 47,1 26,3
37 22.7.2018 12:00 4 0 49,6 25,9
38 22.7.2018 11:30 0 0 49,5 25,8
39 22.7.2018 11:00 0 0 54,7 24,5
40 22.7.2018 10:30 0 0 57 24,7
41 22.7.2018 10:00 0 0 59,3 24,5
42 22.7.2018 09:30 0 0 63,2 23,4
43 22.7.2018 09:00 0 0 66,5 22,6
44 22.7.2018 08:30 0 0 74,4 20,7
45 22.7.2018 08:00 0 0 73,4 21,6
46 22.7.2018 07:30 0 0 80,3 20
47 22.7.2018 07:00 0 0 88,8 18,1
48 22.7.2018 06:30 0 0 93,8 17,5
© 2011 Ministrstvo za kmetijstvo, gozdarstvo in prehrano. Vse pravice pridržane.